»·PEaware :: N149CD KSBA-KBUR

N149CD :: KSBA-KBUR

FLIGHT INFORMATION

Flight Status: Arrived
Operator: Privately registered:
United States
More flights under this callsign
Pilot: Nathan E. (30132)
Aircraft: CESSNA 172 SKYHAWK
(C172)
More flights by this aircraft type
Origin: KSBA Santa Barbara Mun
United States
Destination: KBUR Bob Hope-Burbank
United States
More flights between these airports :: More routes between these airports
Route: KWANG CMA CMA078 TOAKS
File this flight plan on PilotEdge
Remarks: TEC route SBAP1
Altitude:
(Current/Filed)
5,000ft
Speed:
(Current/Filed)
110kts
Departed: 03-Oct-20 04:41 PM
Arrived: 03-Oct-20 05:28 PM
Distance/Time
Traveled:
75nm/0:47
Distance/Time
To Go:
Arrived

Flight Plot

Page will automatically refresh every two minutes.


Map Options




Map Legend


Flown Route
Filed Route
Departure Airport
Arrival Airport
Navaid (VOR, NDB)
Fix

Horizontal Profiles

Position Reports

Time Latitude Longitude Heading Altitude Ground
Speed
03-Oct-20 16:28 34.432569 -119.835085 71 14ft 0kts
03-Oct-20 16:29 34.432569 -119.835085 71 14ft 0kts
03-Oct-20 16:30 34.432569 -119.835085 71 14ft 0kts
03-Oct-20 16:31 34.432569 -119.835085 71 14ft 0kts
03-Oct-20 16:32 34.432569 -119.835085 71 14ft 0kts
03-Oct-20 16:33 34.432569 -119.835085 71 14ft 0kts
03-Oct-20 16:34 34.432569 -119.835085 71 14ft 0kts
03-Oct-20 16:35 34.432569 -119.835085 71 14ft 0kts
03-Oct-20 16:36 34.432569 -119.835085 71 14ft 0kts
03-Oct-20 16:37 34.431716 -119.835352 179 14ft 13kts
03-Oct-20 16:38 34.428689 -119.835283 182 11ft 0kts
03-Oct-20 16:39 34.428689 -119.835283 182 11ft 0kts
03-Oct-20 16:40 34.427731 -119.844208 268 122ft 71kts
03-Oct-20 16:41 34.426932 -119.869257 266 967ft 70kts
03-Oct-20 16:42 34.425340 -119.892914 266 1725ft 71kts
03-Oct-20 16:43 34.419008 -119.914537 198 2443ft 82kts
03-Oct-20 16:44 34.402412 -119.894928 121 3120ft 90kts
03-Oct-20 16:45 34.388804 -119.869315 121 3782ft 91kts
03-Oct-20 16:46 34.374707 -119.843767 121 4423ft 91kts
03-Oct-20 16:47 34.360237 -119.818405 121 5001ft 95kts
03-Oct-20 16:48 34.350771 -119.781783 99 5018ft 122kts
03-Oct-20 16:49 34.342766 -119.741118 99 5018ft 124kts
03-Oct-20 16:50 34.335007 -119.701732 107 5018ft 118kts
03-Oct-20 16:51 34.327302 -119.663206 107 5018ft 117kts
03-Oct-20 16:52 34.319672 -119.624974 107 5018ft 117kts
03-Oct-20 16:53 34.312010 -119.586609 106 5017ft 117kts
03-Oct-20 16:54 34.304364 -119.548373 106 5010ft 117kts
03-Oct-20 16:55 34.299076 -119.509549 101 5008ft 116kts
03-Oct-20 16:56 34.294058 -119.470719 101 5008ft 116kts
03-Oct-20 16:57 34.289053 -119.431988 101 5008ft 117kts
03-Oct-20 16:58 34.283991 -119.392875 101 5008ft 116kts
03-Oct-20 17:00 34.278955 -119.354067 101 5008ft 117kts
03-Oct-20 17:01 34.273834 -119.314712 102 5008ft 117kts
03-Oct-20 17:02 34.268790 -119.276035 102 5008ft 116kts
03-Oct-20 17:03 34.263877 -119.238462 102 5007ft 116kts
03-Oct-20 17:04 34.258669 -119.198729 102 5005ft 116kts
03-Oct-20 17:05 34.253590 -119.160081 102 5004ft 116kts
03-Oct-20 17:06 34.248530 -119.121673 102 5002ft 115kts
03-Oct-20 17:07 34.243438 -119.083115 102 5001ft 115kts
03-Oct-20 17:08 34.238354 -119.044714 102 4999ft 115kts
03-Oct-20 17:09 34.233303 -119.006658 102 4999ft 115kts
03-Oct-20 17:10 34.228185 -118.968188 102 4999ft 115kts
03-Oct-20 17:11 34.223081 -118.929970 102 4991ft 115kts
03-Oct-20 17:12 34.217941 -118.891857 103 4990ft 114kts
03-Oct-20 17:13 34.212876 -118.853767 102 4990ft 114kts
03-Oct-20 17:14 34.207769 -118.815733 101 4990ft 114kts
03-Oct-20 17:15 34.203072 -118.778197 96 4903ft 110kts
03-Oct-20 17:16 34.202378 -118.739818 93 4402ft 115kts
03-Oct-20 17:17 34.201997 -118.701319 93 4091ft 114kts
03-Oct-20 17:17 34.201676 -118.669151 93 4089ft 114kts
03-Oct-20 17:18 34.201274 -118.630993 92 4089ft 113kts
03-Oct-20 17:20 34.200873 -118.586554 94 3777ft 112kts
03-Oct-20 17:20 34.200240 -118.555271 92 3356ft 113kts
03-Oct-20 17:21 34.199792 -118.516948 92 2978ft 115kts
03-Oct-20 17:22 34.199326 -118.479025 93 2506ft 109kts
03-Oct-20 17:23 34.198904 -118.444382 94 1981ft 90kts
03-Oct-20 17:24 34.198517 -118.415041 94 1510ft 86kts
03-Oct-20 17:25 34.198198 -118.390033 95 1122ft 69kts
03-Oct-20 17:26 34.197920 -118.367441 89 738ft 60kts
03-Oct-20 17:27 34.198501 -118.360251 359 717ft 2kts
03-Oct-20 17:28 34.199636 -118.359649 82 720ft 0kts
03-Oct-20 17:29 34.199636 -118.359649 82 720ft 0kts
03-Oct-20 17:30 34.199636 -118.359649 82 720ft 0kts
03-Oct-20 17:31 34.199636 -118.359649 82 720ft 0kts

Navigation Log

Ident Type
Flight plan parsing failed, navigation log unavailable